createdAt,value
2022-09-05T00:02:05.868Z,101427.09
2022-09-05T00:05:00.587Z,101429.25
2022-09-05T00:08:02.619Z,101429.48
2022-09-05T00:10:35.863Z,101428.40
2022-09-05T00:13:08.126Z,101425.55
2022-09-05T00:16:07.005Z,101423.94
2022-09-05T00:21:13.520Z,101421.20
2022-09-05T00:24:29.933Z,101420.98
2022-09-05T00:25:33.883Z,101420.60
2022-09-05T00:28:00.868Z,101420.06
2022-09-05T00:31:08.659Z,101418.39
2022-09-05T00:34:03.718Z,101425.02
2022-09-05T00:36:33.494Z,101428.61
2022-09-05T00:39:08.583Z,101428.32
2022-09-05T00:41:36.882Z,101429.31
2022-09-05T00:44:04.638Z,101428.56
2022-09-05T00:46:37.244Z,101430.73
2022-09-05T00:49:34.859Z,101429.48
2022-09-05T00:52:18.408Z,101433.83
2022-09-05T00:55:12.854Z,101434.97
2022-09-05T00:57:59.613Z,101434.71
2022-09-05T01:00:50.650Z,101436.13
2022-09-05T01:03:30.795Z,101433.64
2022-09-05T01:06:17.702Z,101434.41
2022-09-05T01:09:09.805Z,101435.55
2022-09-05T01:12:00.774Z,101438.34
2022-09-05T01:14:46.533Z,101441.34
2022-09-05T01:17:20.850Z,101440.95
2022-09-05T01:20:19.290Z,101440.77
2022-09-05T01:23:08.566Z,101442.39
2022-09-05T01:25:47.117Z,101442.17
2022-09-05T01:29:17.906Z,101443.03
2022-09-05T01:32:00.834Z,101444.60
2022-09-05T01:34:31.354Z,101442.39
2022-09-05T01:37:32.843Z,101441.23
2022-09-05T01:40:19.853Z,101439.90
2022-09-05T01:43:10.516Z,101436.59
2022-09-05T01:46:23.027Z,101435.55
2022-09-05T01:48:54.909Z,101434.24
2022-09-05T01:51:36.923Z,101437.21
2022-09-05T01:54:31.163Z,101431.06
2022-09-05T01:57:35.859Z,101436.20
2022-09-05T02:00:09.449Z,101436.16
2022-09-05T02:02:57.949Z,101432.16
2022-09-05T02:05:51.067Z,101433.02
2022-09-05T02:08:47.593Z,101432.90
2022-09-05T02:11:15.066Z,101432.65
2022-09-05T02:14:34.345Z,101430.01
2022-09-05T02:17:49.991Z,101431.93
2022-09-05T02:20:29.405Z,101431.13
2022-09-05T02:23:27.393Z,101432.72
2022-09-05T02:26:18.020Z,101431.42
2022-09-05T02:29:01.091Z,101430.48
2022-09-05T02:31:40.034Z,101429.61
2022-09-05T02:34:36.041Z,101428.65
2022-09-05T02:38:30.142Z,101425.48
2022-09-05T02:45:03.377Z,101424.31
2022-09-05T02:45:09.514Z,101424.98
2022-09-05T02:46:44.550Z,101424.55
2022-09-05T02:49:41.870Z,101421.70
2022-09-05T02:57:37.226Z,101419.42
2022-09-05T02:57:46.119Z,101421.36
2022-09-05T02:58:07.749Z,101416.77
2022-09-05T03:00:44.834Z,101411.19
2022-09-05T03:03:39.778Z,101412.49
2022-09-05T03:06:15.189Z,101413.04
2022-09-05T03:09:17.271Z,101409.77
2022-09-05T03:12:27.109Z,101411.78
2022-09-05T03:15:23.422Z,101409.31
2022-09-05T03:18:20.359Z,101408.73
2022-09-05T03:21:40.411Z,101409.64
2022-09-05T03:24:19.125Z,101410.28
2022-09-05T03:27:11.066Z,101413.77
2022-09-05T03:30:00.021Z,101415.52
2022-09-05T03:33:13.152Z,101416.68
2022-09-05T03:35:54.986Z,101417.77
2022-09-05T03:38:49.794Z,101418.73
2022-09-05T03:41:40.569Z,101418.29
2022-09-05T03:44:16.303Z,101420.20
2022-09-05T03:46:46.434Z,101419.77
2022-09-05T03:51:32.098Z,101421.69
2022-09-05T03:57:15.047Z,101418.34
2022-09-05T03:57:15.203Z,101422.02
2022-09-05T03:58:56.817Z,101425.80
2022-09-05T04:02:59.987Z,101426.67
2022-09-05T04:08:11.270Z,101431.70
2022-09-05T04:08:14.241Z,101430.66
2022-09-05T04:10:52.447Z,101425.80
2022-09-05T04:13:28.579Z,101434.15
2022-09-05T04:16:09.017Z,101435.79
2022-09-05T04:18:48.822Z,101438.23
2022-09-05T04:21:23.625Z,101441.77
2022-09-05T04:24:06.078Z,101445.12
2022-09-05T04:26:54.837Z,101443.36
2022-09-05T04:29:53.657Z,101441.73
2022-09-05T04:32:50.054Z,101437.98
2022-09-05T04:35:30.702Z,101442.45
2022-09-05T04:38:35.376Z,101442.61
2022-09-05T04:41:09.837Z,101443.16
2022-09-05T04:43:39.718Z,101448.23
2022-09-05T04:47:01.426Z,101447.60
2022-09-05T04:49:37.742Z,101457.23
2022-09-05T04:52:13.802Z,101457.00
2022-09-05T04:55:12.377Z,101456.86
2022-09-05T04:57:41.918Z,101457.48
2022-09-05T05:06:04.826Z,101458.92
2022-09-05T05:06:09.939Z,101463.95
2022-09-05T05:06:31.815Z,101470.20
2022-09-05T05:09:19.797Z,101472.61
2022-09-05T05:18:01.198Z,101476.95
2022-09-05T05:18:15.467Z,101481.44
2022-09-05T05:18:35.647Z,101482.94
2022-09-05T05:21:21.637Z,101487.00
2022-09-05T05:23:52.256Z,101486.33
2022-09-05T05:26:24.257Z,101486.20
2022-09-05T05:29:08.952Z,101484.94
2022-09-05T05:31:50.093Z,101483.70
2022-09-05T05:34:29.514Z,101482.23
2022-09-05T05:37:02.842Z,101482.95
2022-09-05T05:39:31.039Z,101484.60
2022-09-05T05:41:58.986Z,101489.04
2022-09-05T05:44:58.700Z,101495.31
2022-09-05T05:47:45.029Z,101497.98
2022-09-05T05:50:33.563Z,101498.42
2022-09-05T05:53:05.883Z,101502.98
2022-09-05T05:55:56.603Z,101504.61
2022-09-05T05:58:33.007Z,101508.77
2022-09-05T06:01:30.303Z,101511.05
2022-09-05T06:04:17.203Z,101507.78
2022-09-05T06:07:09.823Z,101501.27
2022-09-05T06:14:54.959Z,101498.05
2022-09-05T06:14:58.875Z,101497.81
2022-09-05T06:16:23.023Z,101501.91
2022-09-05T06:19:17.307Z,101505.18
2022-09-05T06:22:18.128Z,101503.10
2022-09-05T06:25:28.656Z,101500.42
2022-09-05T06:28:20.306Z,101503.90
2022-09-05T06:31:30.658Z,101500.67
2022-09-05T06:34:17.061Z,101499.79
2022-09-05T06:37:03.231Z,101500.28
2022-09-05T06:39:52.229Z,101503.34
2022-09-05T06:42:45.493Z,101502.34
2022-09-05T06:45:27.567Z,101503.12
2022-09-05T06:48:04.992Z,101502.48
2022-09-05T06:51:07.466Z,101501.72
2022-09-05T06:54:01.654Z,101506.00
2022-09-05T06:56:38.793Z,101501.73
2022-09-05T06:59:14.451Z,101499.95
2022-09-05T07:02:01.018Z,101503.15
2022-09-05T07:05:37.628Z,101503.55
2022-09-05T07:07:34.660Z,101507.23
2022-09-05T07:10:37.017Z,101506.45
2022-09-05T07:13:12.547Z,101508.30
2022-09-05T07:15:58.376Z,101510.73
2022-09-05T07:18:37.775Z,101508.48
2022-09-05T07:21:26.772Z,101515.96
2022-09-05T07:24:47.584Z,101519.73
2022-09-05T07:27:41.840Z,101521.95
2022-09-05T07:30:26.074Z,101521.45
2022-09-05T07:32:56.922Z,101523.20
2022-09-05T07:35:39.782Z,101529.26
2022-09-05T07:38:13.904Z,101526.09
2022-09-05T07:40:55.307Z,101526.54
2022-09-05T07:43:35.357Z,101524.60
2022-09-05T07:46:25.070Z,101532.38
2022-09-05T07:48:59.481Z,101531.02
2022-09-05T07:56:49.542Z,101525.21
2022-09-05T07:56:59.647Z,101525.52
2022-09-05T07:57:32.282Z,101524.57
2022-09-05T08:00:26.179Z,101523.50
2022-09-05T08:02:58.624Z,101530.38
2022-09-05T08:05:34.928Z,101530.52
2022-09-05T08:08:08.077Z,101526.50
2022-09-05T08:11:22.527Z,101523.20
2022-09-05T08:13:46.506Z,101518.08
2022-09-05T08:16:20.653Z,101520.80
2022-09-05T08:19:00.947Z,101516.31
2022-09-05T08:21:41.921Z,101518.42
2022-09-05T08:24:26.417Z,101516.45
2022-09-05T08:27:16.635Z,101517.42
2022-09-05T08:30:06.413Z,101518.54
2022-09-05T08:33:10.985Z,101517.93
2022-09-05T08:35:45.519Z,101516.70
2022-09-05T08:38:14.823Z,101521.64
2022-09-05T08:41:06.628Z,101516.67
2022-09-05T08:46:43.588Z,101514.21
2022-09-05T08:47:46.015Z,101511.74
2022-09-05T08:50:38.490Z,101512.51
2022-09-05T08:53:45.635Z,101514.53
2022-09-05T08:56:21.451Z,101507.84
2022-09-05T08:59:34.779Z,101503.54
2022-09-05T09:02:49.515Z,101501.86
2022-09-05T09:06:11.958Z,101495.14
2022-09-05T09:09:06.046Z,101495.68
2022-09-05T09:11:53.345Z,101494.29
2022-09-05T09:14:46.149Z,101486.13
2022-09-05T09:17:26.694Z,101487.28
2022-09-05T09:20:07.093Z,101486.31
2022-09-05T09:22:45.367Z,101481.15
2022-09-05T09:25:18.432Z,101480.81
2022-09-05T09:28:39.384Z,101478.61
2022-09-05T09:30:43.927Z,101478.30
2022-09-05T09:33:21.895Z,101475.41
2022-09-05T09:36:08.215Z,101469.63
2022-09-05T09:38:48.715Z,101461.44
2022-09-05T09:41:34.181Z,101458.00
2022-09-05T09:44:41.556Z,101463.41
2022-09-05T09:47:14.134Z,101460.39
2022-09-05T09:50:11.924Z,101457.46
2022-09-05T09:53:13.416Z,101454.44
2022-09-05T09:56:19.122Z,101451.41
2022-09-05T09:59:19.153Z,101449.68
2022-09-05T10:03:18.500Z,101445.82
2022-09-05T10:10:39.943Z,101447.33
2022-09-05T10:10:53.744Z,101447.48
2022-09-05T10:11:55.668Z,101448.24
2022-09-05T10:14:49.298Z,101447.95
2022-09-05T10:17:26.140Z,101445.00
2022-09-05T10:20:21.087Z,101437.59
2022-09-05T10:23:21.582Z,101442.30
2022-09-05T10:26:09.476Z,101440.80
2022-09-05T10:28:52.357Z,101438.63
2022-09-05T10:34:55.097Z,101438.73
2022-09-05T10:35:14.642Z,101433.67
2022-09-05T10:37:12.350Z,101434.02
2022-09-05T10:39:53.304Z,101433.59
2022-09-05T10:42:35.080Z,101428.41
2022-09-05T10:45:36.366Z,101422.02
2022-09-05T10:48:36.341Z,101422.30
2022-09-05T10:51:26.875Z,101421.28
2022-09-05T10:54:22.945Z,101418.88
2022-09-05T10:57:23.735Z,101418.44
2022-09-05T11:01:56.048Z,101409.52
2022-09-05T11:02:58.315Z,101407.30
2022-09-05T11:05:37.965Z,101403.11
2022-09-05T11:08:09.678Z,101399.21
2022-09-05T11:10:49.112Z,101398.27
2022-09-05T11:13:49.935Z,101403.89
2022-09-05T11:16:59.967Z,101401.73
2022-09-05T11:19:56.981Z,101401.50
2022-09-05T11:22:24.590Z,101402.13
2022-09-05T11:25:00.496Z,101403.46
2022-09-05T11:27:35.930Z,101399.07
2022-09-05T11:30:27.290Z,101400.73
2022-09-05T11:39:48.595Z,101396.13
2022-09-05T11:39:56.072Z,101394.98
2022-09-05T11:40:31.616Z,101394.77
2022-09-05T11:42:52.058Z,101387.45
2022-09-05T11:45:36.833Z,101387.43
2022-09-05T11:48:12.891Z,101381.88
2022-09-05T11:51:10.823Z,101382.88
2022-09-05T11:53:40.420Z,101377.16
2022-09-05T11:56:30.781Z,101374.95
2022-09-05T11:59:33.014Z,101375.40
2022-09-05T12:02:23.807Z,101376.30
2022-09-05T12:05:49.605Z,101377.27
2022-09-05T12:08:14.159Z,101369.19
2022-09-05T12:10:53.614Z,101369.80
2022-09-05T12:13:39.286Z,101365.61
2022-09-05T12:16:38.924Z,101371.02
2022-09-05T12:19:39.664Z,101360.66
2022-09-05T12:22:23.858Z,101359.70
2022-09-05T12:25:18.694Z,101361.81
2022-09-05T12:28:00.025Z,101358.60
2022-09-05T12:31:09.964Z,101354.21
2022-09-05T12:39:01.381Z,101340.69
2022-09-05T12:41:33.378Z,101340.23
2022-09-05T12:42:09.934Z,101346.94
2022-09-05T12:43:33.470Z,101336.85
2022-09-05T12:48:38.576Z,101338.04
2022-09-05T12:51:45.204Z,101336.55
2022-09-05T12:54:47.788Z,101330.43
2022-09-05T13:02:57.874Z,101330.80
2022-09-05T13:03:06.073Z,101321.92
2022-09-05T13:03:26.993Z,101320.98
2022-09-05T13:05:59.455Z,101319.39
2022-09-05T13:08:35.391Z,101322.38
2022-09-05T13:14:48.923Z,101320.80
2022-09-05T13:14:56.951Z,101316.26
2022-09-05T13:16:47.001Z,101312.83
2022-09-05T13:19:30.183Z,101310.77
2022-09-05T13:21:59.820Z,101303.43
2022-09-05T13:24:32.176Z,101301.52
2022-09-05T13:27:13.795Z,101296.38
2022-09-05T13:31:18.309Z,101296.61
2022-09-05T13:37:54.693Z,101293.42
2022-09-05T13:38:10.025Z,101290.95
2022-09-05T13:38:48.108Z,101288.45
2022-09-05T13:41:28.331Z,101285.65
2022-09-05T13:44:00.298Z,101284.16
2022-09-05T13:46:59.780Z,101281.80
2022-09-05T13:49:44.676Z,101275.63
2022-09-05T13:52:29.694Z,101275.64
2022-09-05T13:57:45.791Z,101274.47
2022-09-05T14:00:28.031Z,101269.39
2022-09-05T14:03:38.330Z,101262.06
2022-09-05T14:06:46.949Z,101256.06
2022-09-05T14:09:46.464Z,101255.74
2022-09-05T14:12:37.250Z,101255.04
2022-09-05T14:15:39.350Z,101256.48
2022-09-05T14:18:22.252Z,101257.39
2022-09-05T14:21:19.122Z,101258.21
2022-09-05T14:24:03.385Z,101248.83
2022-09-05T14:26:36.127Z,101248.98
2022-09-05T14:29:39.540Z,101246.85
2022-09-05T14:37:41.233Z,101245.30
2022-09-05T14:37:53.023Z,101243.66
2022-09-05T14:38:25.671Z,101245.39
2022-09-05T14:41:29.619Z,101245.27
2022-09-05T14:44:13.725Z,101243.19
2022-09-05T14:49:52.107Z,101245.55
2022-09-05T14:52:30.937Z,101244.20
2022-09-05T15:02:45.617Z,101242.95
2022-09-05T15:02:54.607Z,101244.05
2022-09-05T15:06:43.473Z,101243.09
2022-09-05T15:11:23.886Z,101240.59
2022-09-05T15:12:24.352Z,101234.20
2022-09-05T15:15:00.263Z,101243.45
2022-09-05T15:17:28.044Z,101235.23
2022-09-05T15:20:05.349Z,101234.48
2022-09-05T15:22:37.033Z,101230.97
2022-09-05T15:25:21.761Z,101227.61
2022-09-05T15:27:49.592Z,101222.10
2022-09-05T15:30:25.687Z,101227.04
2022-09-05T16:23:27.395Z,101224.36
2022-09-05T16:23:31.430Z,101218.45
2022-09-05T16:25:50.368Z,101214.70
2022-09-05T16:28:24.065Z,101222.15
2022-09-05T16:31:00.971Z,101221.45
2022-09-05T16:33:32.018Z,101217.02
2022-09-05T16:36:05.873Z,101215.21
2022-09-05T16:38:49.604Z,101215.61
2022-09-05T16:41:24.736Z,101214.25
2022-09-05T16:44:04.326Z,101218.69
2022-09-05T16:47:03.064Z,101215.05
2022-09-05T16:49:41.995Z,101213.66
2022-09-05T16:52:17.794Z,101209.75
2022-09-05T16:55:13.316Z,101210.76
2022-09-05T16:57:43.732Z,101208.62
2022-09-05T17:00:11.275Z,101206.34
2022-09-05T17:02:57.017Z,101208.80
2022-09-05T17:05:29.387Z,101209.04
2022-09-05T17:08:22.007Z,101208.85
2022-09-05T17:10:58.176Z,101213.90
2022-09-05T17:13:45.247Z,101209.23
2022-09-05T17:16:40.970Z,101211.52
2022-09-05T17:19:22.233Z,101218.13
2022-09-05T17:24:45.089Z,101211.08
2022-09-05T17:29:30.091Z,101210.83
2022-09-05T17:29:47.362Z,101208.19
2022-09-05T17:31:48.961Z,101206.72
2022-09-05T17:33:45.489Z,101205.63
2022-09-05T17:36:20.318Z,101208.37
2022-09-05T17:38:59.112Z,101205.09
2022-09-05T17:44:18.070Z,101210.40
2022-09-05T17:49:27.975Z,101219.67
2022-09-05T17:54:19.993Z,101215.52
2022-09-05T17:56:53.547Z,101216.66
2022-09-05T17:59:20.510Z,101214.98
2022-09-05T18:07:28.748Z,101223.40
2022-09-05T18:17:54.613Z,101234.36
2022-09-05T18:23:39.295Z,101237.82
2022-09-05T18:34:37.663Z,101251.24
2022-09-05T18:37:43.870Z,101250.07
2022-09-05T18:40:37.102Z,101251.96
2022-09-05T18:43:16.354Z,101246.16
2022-09-05T18:45:52.951Z,101249.98
2022-09-05T18:48:25.614Z,101250.48
2022-09-05T18:51:13.050Z,101249.19
2022-09-05T18:53:47.596Z,101252.03
2022-09-05T18:56:27.654Z,101253.42
2022-09-05T18:59:12.341Z,101251.70
2022-09-05T19:01:50.927Z,101256.93
2022-09-05T19:04:39.605Z,101258.34
2022-09-05T19:07:10.441Z,101261.31
2022-09-05T19:09:39.647Z,101262.98
2022-09-05T19:12:34.976Z,101265.02
2022-09-05T19:15:08.393Z,101263.19
2022-09-05T19:17:45.458Z,101266.70
2022-09-05T19:20:32.555Z,101264.59
2022-09-05T19:23:13.444Z,101267.44
2022-09-05T19:25:52.609Z,101270.77
2022-09-05T19:36:44.026Z,101275.83
2022-09-05T19:36:58.159Z,101275.35
2022-09-05T19:37:05.473Z,101274.98
2022-09-05T19:37:26.269Z,101269.55
2022-09-05T19:46:05.542Z,101274.33
2022-09-05T19:47:34.264Z,101275.41
2022-09-05T19:47:44.521Z,101274.08
2022-09-05T19:48:35.323Z,101272.34
2022-09-05T19:51:31.202Z,101269.45
2022-09-05T19:54:04.889Z,101271.34
2022-09-05T19:56:45.688Z,101271.09
2022-09-05T19:59:34.405Z,101278.30
2022-09-05T20:02:02.417Z,101277.27
2022-09-05T20:04:37.985Z,101275.44
2022-09-05T20:07:17.242Z,101273.28
2022-09-05T20:09:47.189Z,101276.11
2022-09-05T20:12:24.131Z,101272.16
2022-09-05T20:14:51.654Z,101268.32
2022-09-05T20:17:26.272Z,101267.96
2022-09-05T20:20:25.944Z,101261.92
2022-09-05T20:22:57.989Z,101258.19
2022-09-05T20:25:40.740Z,101262.52
2022-09-05T20:28:19.903Z,101265.09
2022-09-05T20:30:52.043Z,101262.08
2022-09-05T20:33:33.217Z,101267.71
2022-09-05T20:43:07.989Z,101268.40
2022-09-05T20:43:31.463Z,101262.66
2022-09-05T20:43:32.822Z,101266.19
2022-09-05T20:45:01.588Z,101262.10
2022-09-05T20:54:10.295Z,101258.98
2022-09-05T20:54:16.970Z,101267.68
2022-09-05T20:54:21.956Z,101260.83
2022-09-05T20:56:22.721Z,101271.27
2022-09-05T20:58:51.660Z,101273.14
2022-09-05T21:01:24.438Z,101274.37
2022-09-05T21:04:05.174Z,101273.45
2022-09-05T21:06:41.851Z,101269.99
2022-09-05T21:09:17.799Z,101266.11
2022-09-05T21:11:53.723Z,101259.48
2022-09-05T21:14:22.900Z,101254.05
2022-09-05T21:17:14.821Z,101251.98
2022-09-05T21:19:53.463Z,101254.89
2022-09-05T21:22:20.749Z,101254.46
2022-09-05T21:24:47.973Z,101256.36
2022-09-05T21:27:23.591Z,101260.20
2022-09-05T21:29:54.372Z,101257.31
2022-09-05T21:32:31.838Z,101258.74
2022-09-05T21:35:33.531Z,101262.89
2022-09-05T21:37:54.599Z,101261.70
2022-09-05T21:40:21.576Z,101260.89
2022-09-05T21:45:16.717Z,101256.54
2022-09-05T21:47:41.328Z,101260.10
2022-09-05T21:48:23.885Z,101260.73
2022-09-05T21:50:53.360Z,101257.55
2022-09-05T21:58:43.391Z,101253.98
2022-09-05T21:59:29.831Z,101257.63
2022-09-05T21:59:49.965Z,101259.08
2022-09-05T22:02:17.689Z,101259.42
2022-09-05T22:04:44.553Z,101254.45
2022-09-05T22:07:21.686Z,101252.31
2022-09-05T22:09:59.357Z,101250.27
2022-09-05T22:12:41.490Z,101248.69
2022-09-05T22:15:28.256Z,101250.38
2022-09-05T22:18:16.470Z,101250.23
2022-09-05T22:21:01.336Z,101252.23
2022-09-05T22:23:34.843Z,101245.84
2022-09-05T22:26:05.870Z,101243.02
2022-09-05T22:28:34.591Z,101238.04
2022-09-05T22:31:07.684Z,101235.45
2022-09-05T22:33:35.417Z,101230.22
2022-09-05T22:36:02.397Z,101226.90
2022-09-05T22:38:29.049Z,101220.54
2022-09-05T22:40:57.197Z,101221.51
2022-09-05T22:43:23.777Z,101219.31
2022-09-05T22:45:56.029Z,101220.79
2022-09-05T22:48:23.340Z,101218.83
2022-09-05T22:50:50.250Z,101215.27
2022-09-05T22:53:17.125Z,101209.24
2022-09-05T22:55:43.904Z,101203.20
2022-09-05T22:58:15.175Z,101198.55
2022-09-05T23:00:44.389Z,101194.07
2022-09-05T23:03:11.132Z,101196.48
2022-09-05T23:05:37.954Z,101190.59
2022-09-05T23:08:06.078Z,101192.55
2022-09-05T23:10:33.771Z,101184.31
2022-09-05T23:13:04.778Z,101187.44
2022-09-05T23:15:31.709Z,101183.45
2022-09-05T23:18:00.458Z,101182.58
2022-09-05T23:20:29.671Z,101175.54
2022-09-05T23:22:57.041Z,101174.29
2022-09-05T23:25:23.865Z,101171.36
2022-09-05T23:27:50.825Z,101172.06
2022-09-05T23:30:17.702Z,101167.62
2022-09-05T23:32:49.407Z,101172.27
2022-09-05T23:35:17.409Z,101169.84
2022-09-05T23:37:45.740Z,101158.98
2022-09-05T23:40:13.969Z,101161.89
2022-09-05T23:42:41.572Z,101161.14
2022-09-05T23:45:09.245Z,101156.97
2022-09-05T23:47:36.748Z,101153.56
2022-09-05T23:50:04.199Z,101152.02
2022-09-05T23:52:30.849Z,101157.52
2022-09-05T23:54:57.394Z,101162.44
2022-09-05T23:57:24.371Z,101161.56
2022-09-05T23:59:52.533Z,101162.21
